Time;durP1;ratioP1;P1;durP2;ratioP2;P2;SDS_P1;SDS_P2;PMS_P1;PMS_P2;Temp;Humidity;BMP_temperature;BMP_pressure;BME280_temperature;BME280_humidity;BME280_pressure;Samples;Min_cycle;Max_cycle;Signal;HPM_P1;HPM_P2
2021/08/25 00:01:59;;;;;;;9.00;5.10;;;9.90;99.90;;;;;;5052352;28;20379;-78
2021/08/25 00:04:25;;;;;;;6.00;4.70;;;9.80;99.90;;;;;;5052514;28;20368;-78
2021/08/25 00:06:50;;;;;;;6.57;4.70;;;9.80;99.90;;;;;;5052808;28;20387;-80
2021/08/25 00:09:16;;;;;;;6.55;4.85;;;9.80;99.90;;;;;;5052227;28;20368;-79
2021/08/25 00:11:41;;;;;;;5.90;4.67;;;9.70;99.90;;;;;;5052256;28;20394;-78
2021/08/25 00:14:07;;;;;;;8.47;4.83;;;9.70;99.90;;;;;;5053002;28;20374;-78
2021/08/25 00:16:33;;;;;;;8.10;4.90;;;9.70;99.90;;;;;;5052599;28;20390;-79
2021/08/25 00:18:58;;;;;;;5.73;4.80;;;9.60;99.90;;;;;;5052049;28;20380;-79
2021/08/25 00:21:24;;;;;;;6.10;5.27;;;9.60;99.90;;;;;;5051224;28;20372;-77
2021/08/25 00:23:49;;;;;;;5.82;4.47;;;9.50;99.90;;;;;;5050656;28;20873;-79
2021/08/25 00:26:15;;;;;;;5.87;4.43;;;9.50;99.90;;;;;;5052236;28;20411;-78
2021/08/25 00:28:40;;;;;;;7.70;4.40;;;9.50;99.90;;;;;;5051795;28;20415;-79
2021/08/25 00:31:06;;;;;;;5.72;4.45;;;9.50;99.90;;;;;;5052030;28;20441;-78
2021/08/25 00:33:31;;;;;;;8.10;4.73;;;9.50;99.90;;;;;;5051314;28;20391;-80
2021/08/25 00:35:57;;;;;;;5.37;4.60;;;9.40;99.90;;;;;;5052007;28;20399;-78
2021/08/25 00:38:22;;;;;;;7.32;4.93;;;9.40;99.90;;;;;;5052474;28;20864;-78
2021/08/25 00:40:48;;;;;;;7.10;4.90;;;9.30;99.90;;;;;;5052324;28;20372;-80
2021/08/25 00:43:14;;;;;;;7.05;4.63;;;9.30;99.90;;;;;;5051050;28;20410;-78
2021/08/25 00:45:41;;;;;;;6.57;4.50;;;9.30;99.90;;;;;;5053172;28;20419;-78
2021/08/25 00:48:07;;;;;;;6.20;4.90;;;9.30;99.90;;;;;;5035326;28;20395;-79
2021/08/25 00:50:35;;;;;;;6.50;4.68;;;9.30;99.90;;;;;;5034426;28;20533;-79
2021/08/25 00:53:03;;;;;;;6.57;4.80;;;9.30;99.90;;;;;;5052013;28;20391;-79
2021/08/25 00:55:28;;;;;;;5.88;4.68;;;9.30;99.90;;;;;;5050825;28;20403;-79
2021/08/25 00:57:54;;;;;;;6.30;4.70;;;9.20;99.90;;;;;;5049307;28;20383;-78
2021/08/25 01:00:19;;;;;;;6.27;4.77;;;9.10;99.90;;;;;;5050437;28;20522;-80
2021/08/25 01:02:49;;;;;;;7.90;4.80;;;9.10;99.90;;;;;;5050263;28;20394;-78
2021/08/25 01:05:16;;;;;;;5.83;4.50;;;9.00;99.90;;;;;;5050700;28;20473;-79
2021/08/25 01:07:43;;;;;;;5.80;4.90;;;9.00;99.90;;;;;;5049969;28;20465;-78
2021/08/25 01:10:29;;;;;;;6.00;5.13;;;9.00;99.90;;;;;;5031985;28;20742;-78
2021/08/25 01:12:58;;;;;;;8.75;5.32;;;9.00;99.90;;;;;;5050092;28;20410;-80
2021/08/25 01:15:28;;;;;;;7.10;5.05;;;9.00;99.90;;;;;;5049981;28;20885;-80
2021/08/25 01:17:56;;;;;;;7.20;4.78;;;8.90;99.90;;;;;;5049889;28;20426;-80
2021/08/25 01:20:25;;;;;;;6.88;4.60;;;8.90;99.90;;;;;;5049914;28;20379;-78
2021/08/25 01:22:50;;;;;;;6.72;4.80;;;8.90;99.90;;;;;;5031885;28;20402;-79
2021/08/25 01:25:16;;;;;;;45.97;8.80;;;8.90;99.90;;;;;;5049961;28;20372;-80
2021/08/25 01:27:49;;;;;;;18.90;6.30;;;8.90;99.90;;;;;;5049969;28;20383;-80
2021/08/25 01:30:15;;;;;;;11.60;5.10;;;8.90;99.90;;;;;;5049872;28;20387;-79
2021/08/25 01:32:41;;;;;;;6.93;4.63;;;8.90;99.90;;;;;;5049418;28;20383;-77
2021/08/25 01:35:07;;;;;;;8.35;4.53;;;8.80;99.90;;;;;;5049556;28;21027;-80
2021/08/25 01:37:33;;;;;;;12.95;5.25;;;8.80;99.90;;;;;;5049612;28;20733;-79
2021/08/25 01:40:00;;;;;;;7.18;4.90;;;8.70;99.90;;;;;;5049591;28;20383;-80
2021/08/25 01:42:26;;;;;;;7.38;5.05;;;8.70;99.90;;;;;;5049657;28;20376;-79
2021/08/25 01:44:52;;;;;;;7.72;5.40;;;8.60;99.90;;;;;;5049557;28;20376;-79
2021/08/25 01:47:26;;;;;;;8.98;5.13;;;8.70;99.90;;;;;;5031326;28;20746;-80
2021/08/25 01:49:51;;;;;;;6.80;4.90;;;8.60;99.90;;;;;;5049176;28;20388;-78
2021/08/25 01:52:17;;;;;;;6.60;4.82;;;8.60;99.90;;;;;;5049387;28;20541;-79
2021/08/25 01:54:45;;;;;;;6.38;5.70;;;8.60;99.90;;;;;;5031418;28;20400;-79
2021/08/25 01:57:11;;;;;;;8.02;5.72;;;8.50;99.90;;;;;;5049322;28;20447;-80
2021/08/25 01:59:37;;;;;;;8.00;5.40;;;8.50;99.90;;;;;;5031390;28;20407;-78
2021/08/25 02:02:03;;;;;;;8.83;5.33;;;8.60;99.90;;;;;;5049169;28;20862;-79
2021/08/25 02:04:28;;;;;;;9.23;5.45;;;8.60;99.90;;;;;;5049010;28;20383;-79
2021/08/25 02:06:54;;;;;;;7.63;5.47;;;8.50;99.90;;;;;;5047466;28;20518;-80
2021/08/25 02:09:21;;;;;;;7.60;5.57;;;8.50;99.90;;;;;;5049238;28;20383;-79
2021/08/25 02:11:47;;;;;;;6.70;5.03;;;8.50;99.90;;;;;;5049274;28;20390;-81
2021/08/25 02:14:13;;;;;;;6.45;5.00;;;8.50;99.90;;;;;;5048920;28;20387;-79
2021/08/25 02:16:39;;;;;;;9.35;5.53;;;8.40;99.90;;;;;;5049030;28;20384;-79
2021/08/25 02:19:04;;;;;;;7.33;5.30;;;8.40;99.90;;;;;;5049061;28;20399;-78
2021/08/25 02:21:30;;;;;;;6.50;4.93;;;8.40;99.90;;;;;;5049067;28;20374;-78
2021/08/25 02:23:56;;;;;;;7.82;5.18;;;8.40;99.90;;;;;;5048985;28;20376;-79
2021/08/25 02:26:21;;;;;;;7.57;4.93;;;8.30;99.90;;;;;;5047726;28;20976;-79
2021/08/25 02:28:50;;;;;;;9.73;5.53;;;8.30;99.90;;;;;;5048861;28;20384;-79
2021/08/25 02:31:17;;;;;;;7.95;5.82;;;8.20;99.90;;;;;;5049087;28;20394;-79
2021/08/25 02:33:43;;;;;;;9.38;6.55;;;8.30;99.90;;;;;;5048638;28;20688;-79
2021/08/25 02:36:09;;;;;;;8.25;6.13;;;8.20;99.90;;;;;;5048722;28;20400;-79
2021/08/25 02:38:36;;;;;;;7.60;5.72;;;8.20;99.90;;;;;;5048600;28;20376;-78
2021/08/25 02:41:04;;;;;;;8.32;6.03;;;8.10;99.90;;;;;;5048931;28;20382;-79
2021/08/25 02:43:30;;;;;;;7.05;5.68;;;8.10;99.90;;;;;;5048754;28;20383;-79
2021/08/25 02:45:55;;;;;;;9.00;5.40;;;8.10;99.90;;;;;;5052428;28;20384;-80
2021/08/25 02:48:21;;;;;;;7.70;4.90;;;8.10;99.90;;;;;;5052815;28;20466;-79
2021/08/25 02:50:46;;;;;;;7.27;5.60;;;8.10;99.90;;;;;;5052761;28;20384;-78
2021/08/25 02:53:12;;;;;;;6.95;5.47;;;8.00;99.90;;;;;;5052771;28;20376;-78
2021/08/25 02:55:37;;;;;;;7.72;5.45;;;8.00;99.90;;;;;;5052566;28;20403;-78
2021/08/25 02:58:03;;;;;;;7.20;5.73;;;7.90;99.90;;;;;;5052367;28;20379;-78
2021/08/25 03:00:29;;;;;;;6.53;5.25;;;7.90;99.90;;;;;;5052638;28;20393;-78
2021/08/25 03:02:54;;;;;;;6.78;5.00;;;7.90;99.90;;;;;;5052514;28;20452;-78
2021/08/25 03:05:20;;;;;;;6.57;5.20;;;7.90;99.90;;;;;;5052536;28;20414;-80
2021/08/25 03:07:45;;;;;;;15.90;5.77;;;7.80;99.90;;;;;;5052270;28;20899;-78
2021/08/25 03:10:11;;;;;;;12.95;6.38;;;7.80;99.90;;;;;;5052391;28;20407;-77
2021/08/25 03:12:37;;;;;;;12.05;5.72;;;7.80;99.90;;;;;;5052203;28;20466;-80
2021/08/25 03:15:08;;;;;;;10.05;5.85;;;7.80;99.90;;;;;;5052231;28;20406;-77
2021/08/25 03:17:33;;;;;;;9.00;5.45;;;7.80;99.90;;;;;;5052126;28;20379;-79
2021/08/25 03:19:59;;;;;;;6.83;5.53;;;7.80;99.90;;;;;;5051981;28;20378;-79
2021/08/25 03:22:25;;;;;;;8.93;5.77;;;7.70;99.90;;;;;;5052064;28;20457;-77
2021/08/25 03:24:50;;;;;;;9.25;5.40;;;7.70;99.90;;;;;;5052226;28;20371;-78
2021/08/25 03:27:16;;;;;;;9.55;5.53;;;7.70;99.90;;;;;;5051989;28;20375;-79
2021/08/25 03:29:42;;;;;;;6.43;5.15;;;7.60;99.90;;;;;;5051995;28;20861;-78
2021/08/25 03:32:08;;;;;;;7.43;5.43;;;7.60;99.90;;;;;;5051835;28;20897;-79
2021/08/25 03:34:33;;;;;;;9.97;5.20;;;7.60;99.90;;;;;;5051858;28;20837;-79
2021/08/25 03:36:59;;;;;;;9.55;5.20;;;7.50;99.90;;;;;;5051804;28;20376;-78
2021/08/25 03:39:25;;;;;;;7.73;5.13;;;7.50;99.90;;;;;;5051910;28;20372;-78
2021/08/25 03:41:50;;;;;;;7.73;5.07;;;7.50;99.90;;;;;;5051640;28;20374;-79
2021/08/25 03:44:16;;;;;;;7.97;5.22;;;7.50;99.90;;;;;;5051761;28;20380;-78
2021/08/25 03:46:41;;;;;;;9.50;5.17;;;7.40;99.90;;;;;;5034117;28;20773;-78
2021/08/25 03:49:07;;;;;;;7.77;5.30;;;7.40;99.90;;;;;;5051731;28;20391;-79
2021/08/25 03:51:32;;;;;;;8.40;5.00;;;7.40;99.90;;;;;;5051722;28;20431;-79
2021/08/25 03:53:58;;;;;;;7.75;5.65;;;7.40;99.90;;;;;;5051584;28;20874;-78
2021/08/25 03:56:24;;;;;;;8.03;6.17;;;7.40;99.90;;;;;;5051220;28;20738;-79
2021/08/25 03:58:49;;;;;;;6.43;5.63;;;7.40;99.90;;;;;;5051591;28;20367;-78
2021/08/25 04:01:15;;;;;;;7.15;5.68;;;7.40;99.90;;;;;;5051357;28;20376;-77
2021/08/25 04:03:40;;;;;;;8.82;5.80;;;7.40;99.90;;;;;;5033743;28;20376;-78
2021/08/25 04:06:06;;;;;;;7.50;5.70;;;7.50;99.90;;;;;;5051388;28;20391;-77
2021/08/25 04:08:32;;;;;;;7.43;5.57;;;7.40;99.90;;;;;;5051474;28;20927;-78
2021/08/25 04:10:57;;;;;;;9.02;5.80;;;7.40;99.90;;;;;;5051080;28;20382;-79
2021/08/25 04:13:23;;;;;;;8.87;5.63;;;7.40;99.90;;;;;;5050004;28;20547;-79
2021/08/25 04:15:48;;;;;;;7.33;5.60;;;7.50;99.90;;;;;;5051191;28;20701;-79
2021/08/25 04:18:14;;;;;;;8.27;5.53;;;7.50;99.90;;;;;;5051231;28;20379;-78
2021/08/25 04:20:39;;;;;;;10.02;5.40;;;7.50;99.90;;;;;;5051203;28;20422;-80
2021/08/25 04:23:05;;;;;;;7.73;5.57;;;7.50;99.90;;;;;;5051191;28;20753;-79
2021/08/25 04:25:31;;;;;;;8.17;4.97;;;7.60;99.90;;;;;;5050836;28;20388;-79
2021/08/25 04:27:56;;;;;;;6.80;5.13;;;7.60;99.90;;;;;;5050783;28;20435;-79
2021/08/25 04:30:22;;;;;;;8.32;5.88;;;7.80;99.90;;;;;;5051241;28;20364;-77
2021/08/25 04:32:48;;;;;;;8.20;5.77;;;7.90;99.90;;;;;;5051038;28;20919;-80
2021/08/25 04:35:13;;;;;;;7.57;5.60;;;8.00;99.90;;;;;;5050909;28;20411;-78
2021/08/25 04:37:39;;;;;;;6.00;5.33;;;8.20;99.90;;;;;;5050650;28;20376;-78
2021/08/25 04:40:05;;;;;;;7.30;5.78;;;8.30;99.90;;;;;;5050753;28;20380;-80
2021/08/25 04:42:31;;;;;;;7.15;5.28;;;8.30;99.90;;;;;;5050726;28;20380;-78
2021/08/25 04:44:58;;;;;;;7.95;5.78;;;8.50;99.90;;;;;;5050771;28;20367;-80
2021/08/25 04:47:23;;;;;;;6.70;4.90;;;8.70;99.90;;;;;;5050661;28;20387;-79
2021/08/25 04:49:49;;;;;;;7.53;5.30;;;8.80;99.90;;;;;;5050855;28;20491;-78
2021/08/25 04:52:15;;;;;;;7.32;5.10;;;9.10;99.90;;;;;;5050815;28;20391;-80
2021/08/25 04:54:41;;;;;;;5.70;4.45;;;9.20;99.90;;;;;;5050474;28;20426;-78
2021/08/25 04:57:06;;;;;;;5.80;4.93;;;9.40;99.90;;;;;;5050568;28;20412;-78
2021/08/25 04:59:32;;;;;;;8.97;5.70;;;9.70;99.90;;;;;;5050306;28;20379;-78
2021/08/25 05:01:58;;;;;;;6.57;5.03;;;9.90;99.90;;;;;;5050492;28;20814;-77
2021/08/25 05:04:23;;;;;;;6.00;4.95;;;10.00;99.90;;;;;;5049432;28;20382;-78
2021/08/25 05:06:49;;;;;;;8.30;5.23;;;10.20;99.90;;;;;;5050195;28;20364;-78
2021/08/25 05:09:14;;;;;;;7.43;4.90;;;10.60;99.90;;;;;;5050112;28;20409;-78
2021/08/25 05:11:40;;;;;;;7.93;5.43;;;10.70;99.90;;;;;;5060620;28;20414;-78
2021/08/25 05:14:05;;;;;;;6.97;5.13;;;11.00;99.90;;;;;;5068347;28;20382;-79
2021/08/25 05:16:31;;;;;;;6.30;4.97;;;11.30;99.90;;;;;;5069365;28;20467;-79
2021/08/25 05:18:57;;;;;;;7.20;4.90;;;11.60;99.90;;;;;;5069483;28;20383;-76
2021/08/25 05:21:23;;;;;;;7.90;5.27;;;11.80;99.90;;;;;;5069430;28;20949;-80
2021/08/25 05:23:49;;;;;;;6.00;5.05;;;12.10;99.90;;;;;;5069204;28;20878;-80
2021/08/25 05:26:16;;;;;;;9.70;5.32;;;12.30;99.90;;;;;;5069211;28;20398;-79
2021/08/25 05:28:41;;;;;;;7.77;5.30;;;12.50;99.90;;;;;;5068794;28;20796;-79
2021/08/25 05:31:07;;;;;;;7.87;5.33;;;12.70;99.90;;;;;;5069704;28;21206;-79
2021/08/25 05:33:33;;;;;;;6.90;5.57;;;12.80;99.90;;;;;;5069886;28;20883;-80
2021/08/25 05:35:59;;;;;;;7.70;5.20;;;12.90;99.90;;;;;;5069625;28;20398;-79
2021/08/25 05:38:26;;;;;;;8.60;6.03;;;12.90;99.90;;;;;;5069541;28;20404;-80
2021/08/25 05:40:51;;;;;;;8.65;5.85;;;13.10;99.90;;;;;;5069507;28;20386;-82
2021/08/25 05:43:17;;;;;;;7.40;5.40;;;13.20;99.90;;;;;;5069080;28;20774;-81
2021/08/25 05:45:44;;;;;;;7.65;5.90;;;13.20;99.90;;;;;;5049640;28;20887;-78
2021/08/25 05:48:10;;;;;;;7.80;6.53;;;13.30;99.90;;;;;;5069486;28;20393;-80
2021/08/25 05:50:36;;;;;;;7.35;5.68;;;13.20;99.90;;;;;;5069579;28;20381;-79
2021/08/25 05:53:02;;;;;;;8.30;5.60;;;13.00;99.90;;;;;;5070149;28;20461;-80
2021/08/25 05:55:27;;;;;;;6.43;5.50;;;13.00;99.90;;;;;;5069784;28;20867;-78
2021/08/25 05:57:53;;;;;;;8.10;5.90;;;13.00;99.90;;;;;;5070219;28;20374;-78
2021/08/25 06:00:19;;;;;;;8.75;5.97;;;13.00;99.90;;;;;;5071383;28;20851;-77
2021/08/25 06:02:45;;;;;;;8.65;6.38;;;13.20;99.90;;;;;;5052860;28;20392;-78
2021/08/25 06:05:13;;;;;;;8.73;6.10;;;13.30;99.90;;;;;;5070737;28;20366;-79
2021/08/25 06:07:39;;;;;;;7.80;5.85;;;13.40;99.90;;;;;;5070368;28;20464;-78
2021/08/25 06:10:05;;;;;;;8.57;5.73;;;13.70;99.90;;;;;;5070311;28;20378;-79
2021/08/25 06:12:31;;;;;;;9.35;5.25;;;13.90;99.90;;;;;;5070647;28;20374;-78
2021/08/25 06:14:56;;;;;;;6.25;4.60;;;14.20;99.90;;;;;;5071683;28;20410;-77
2021/08/25 06:17:22;;;;;;;7.63;5.10;;;14.40;99.90;;;;;;5071649;28;20397;-77
2021/08/25 06:19:47;;;;;;;9.73;5.50;;;14.60;99.90;;;;;;5069131;28;20774;-78
2021/08/25 06:22:13;;;;;;;8.63;5.93;;;14.70;99.90;;;;;;5069832;28;20370;-79
2021/08/25 06:24:39;;;;;;;8.05;5.95;;;14.80;99.90;;;;;;5070253;28;20374;-77
2021/08/25 06:27:04;;;;;;;8.07;5.90;;;15.00;99.90;;;;;;5052068;28;20417;-78
2021/08/25 06:29:30;;;;;;;9.48;5.93;;;15.10;99.90;;;;;;5070037;28;20404;-79
2021/08/25 06:31:56;;;;;;;7.97;5.70;;;15.20;99.90;;;;;;5052049;28;20431;-79
2021/08/25 06:34:22;;;;;;;8.80;5.63;;;15.40;99.90;;;;;;5070262;28;20450;-79
2021/08/25 06:36:47;;;;;;;7.73;5.93;;;15.50;99.90;;;;;;5069083;28;20373;-79
2021/08/25 06:39:13;;;;;;;11.30;6.13;;;15.60;99.90;;;;;;5051230;28;20366;-79
2021/08/25 06:41:38;;;;;;;8.03;5.77;;;15.70;99.90;;;;;;5069211;28;20381;-78
2021/08/25 06:44:04;;;;;;;9.93;6.13;;;15.90;99.90;;;;;;5051598;28;20420;-79
2021/08/25 06:46:30;;;;;;;9.77;6.30;;;16.00;99.90;;;;;;5069219;28;20471;-79
2021/08/25 06:48:56;;;;;;;12.77;6.20;;;16.20;99.90;;;;;;5069067;28;20381;-79
2021/08/25 06:51:21;;;;;;;10.27;5.70;;;16.40;99.90;;;;;;5069284;28;20370;-79
2021/08/25 06:53:47;;;;;;;13.57;6.10;;;16.50;99.90;;;;;;5069352;28;20386;-78
2021/08/25 06:56:12;;;;;;;11.40;6.53;;;16.70;99.90;;;;;;5069345;28;20448;-79
2021/08/25 06:58:38;;;;;;;11.18;6.22;;;16.80;99.90;;;;;;5069319;28;20373;-79
2021/08/25 07:01:03;;;;;;;11.60;6.40;;;17.00;99.90;;;;;;5069162;28;20871;-79
2021/08/25 07:03:29;;;;;;;10.80;6.40;;;17.00;99.90;;;;;;5069458;28;20378;-79
2021/08/25 07:05:55;;;;;;;12.53;6.30;;;17.10;99.90;;;;;;5069116;28;20412;-80
2021/08/25 07:08:21;;;;;;;10.83;7.00;;;17.20;99.90;;;;;;5069117;28;20739;-79
2021/08/25 07:10:46;;;;;;;11.70;6.72;;;17.40;99.90;;;;;;5069412;28;20374;-78
2021/08/25 07:13:12;;;;;;;11.25;6.32;;;17.40;99.90;;;;;;5069578;28;20373;-80
2021/08/25 07:15:38;;;;;;;8.60;5.33;;;17.40;99.90;;;;;;5069793;28;20880;-80
2021/08/25 07:18:03;;;;;;;11.70;5.97;;;17.40;99.90;;;;;;5069346;28;20378;-79
2021/08/25 07:20:29;;;;;;;12.13;6.00;;;17.30;99.90;;;;;;5069195;28;20882;-79
2021/08/25 07:22:54;;;;;;;14.30;6.28;;;17.40;99.90;;;;;;5066357;28;20384;-78
2021/08/25 07:25:20;;;;;;;20.47;6.27;;;17.50;99.90;;;;;;5066702;28;20440;-79
2021/08/25 07:27:46;;;;;;;11.77;5.95;;;17.60;99.90;;;;;;5068175;28;20418;-79
2021/08/25 07:30:12;;;;;;;11.50;5.60;;;17.70;99.90;;;;;;5069798;28;20378;-79
2021/08/25 07:32:39;;;;;;;13.60;6.00;;;17.80;99.90;;;;;;5073122;28;20382;-80
2021/08/25 07:35:07;;;;;;;9.63;5.10;;;18.00;99.90;;;;;;5072956;28;20413;-81
2021/08/25 07:37:33;;;;;;;8.57;4.78;;;18.50;99.90;;;;;;5072330;28;20386;-79
2021/08/25 07:39:58;;;;;;;7.23;5.03;;;19.00;99.90;;;;;;5054683;28;20377;-81
2021/08/25 07:42:24;;;;;;;10.82;5.38;;;19.60;99.90;;;;;;5072504;28;20881;-81
2021/08/25 07:44:50;;;;;;;8.23;4.80;;;19.80;99.90;;;;;;5072401;28;20860;-79
2021/08/25 07:47:16;;;;;;;11.03;5.07;;;20.10;99.90;;;;;;5054378;28;20464;-81
2021/08/25 07:49:41;;;;;;;6.43;4.70;;;20.20;99.90;;;;;;5072456;28;20686;-80
2021/08/25 07:52:07;;;;;;;10.68;4.95;;;20.40;99.90;;;;;;5072990;28;20503;-80
2021/08/25 07:54:33;;;;;;;7.30;4.37;;;20.50;99.90;;;;;;5072252;28;20408;-80
2021/08/25 07:56:58;;;;;;;6.78;4.30;;;20.50;99.90;;;;;;5071830;28;20369;-81
2021/08/25 07:59:24;;;;;;;5.90;4.27;;;20.60;99.90;;;;;;5072099;28;20704;-80
2021/08/25 08:01:49;;;;;;;5.80;4.05;;;20.50;99.90;;;;;;5071941;28;20469;-78
2021/08/25 08:04:15;;;;;;;7.30;4.07;;;20.50;99.90;;;;;;5071898;28;20432;-82
2021/08/25 08:06:41;;;;;;;7.50;4.35;;;20.50;99.90;;;;;;5072636;28;20367;-81
2021/08/25 08:09:06;;;;;;;7.70;4.33;;;20.40;99.90;;;;;;5072994;28;20818;-78
2021/08/25 08:11:32;;;;;;;7.93;4.67;;;20.50;99.90;;;;;;5072709;28;20785;-81
2021/08/25 08:13:57;;;;;;;5.95;4.03;;;20.60;99.90;;;;;;5072917;28;20400;-81
2021/08/25 08:16:23;;;;;;;7.60;4.37;;;20.80;99.90;;;;;;5072177;28;20501;-79
2021/08/25 08:19:02;;;;;;;5.55;4.65;;;20.90;99.90;;;;;;5054409;28;20389;-81
2021/08/25 08:21:28;;;;;;;7.72;4.78;;;20.60;99.90;;;;;;5072188;28;20390;-79
2021/08/25 08:23:55;;;;;;;8.88;4.30;;;20.40;99.90;;;;;;5071418;28;20380;-80
2021/08/25 08:26:21;;;;;;;7.15;4.43;;;20.40;99.90;;;;;;5073109;28;20484;-82
2021/08/25 08:28:47;;;;;;;7.73;4.30;;;20.30;99.90;;;;;;5071694;28;20382;-81
2021/08/25 08:31:13;;;;;;;6.93;4.70;;;20.30;99.90;;;;;;5071970;28;20423;-78
2021/08/25 08:33:39;;;;;;;8.40;4.45;;;20.20;99.90;;;;;;5053720;28;20387;-78
2021/08/25 08:36:05;;;;;;;6.90;4.25;;;20.20;99.90;;;;;;5071211;28;20933;-81
2021/08/25 08:38:32;;;;;;;9.50;4.55;;;20.30;99.90;;;;;;5072206;28;20370;-80
2021/08/25 08:40:57;;;;;;;4.93;4.22;;;20.30;99.90;;;;;;5072763;28;20794;-81
2021/08/25 08:43:23;;;;;;;6.40;4.78;;;20.50;99.90;;;;;;5053368;28;20378;-81
2021/08/25 08:45:49;;;;;;;6.43;4.70;;;20.60;99.90;;;;;;5073038;28;20465;-81
2021/08/25 08:48:15;;;;;;;6.43;4.45;;;20.60;99.90;;;;;;5073982;28;20366;-80
2021/08/25 08:50:46;;;;;;;6.47;4.32;;;20.80;99.90;;;;;;5072939;28;20378;-79
2021/08/25 08:53:13;;;;;;;6.55;4.82;;;21.00;99.90;;;;;;5072864;28;20359;-80
2021/08/25 08:55:39;;;;;;;8.77;4.45;;;21.10;99.90;;;;;;5072870;28;20401;-79
2021/08/25 08:58:08;;;;;;;5.38;3.88;;;21.20;99.90;;;;;;5073615;28;20827;-79
2021/08/25 09:00:34;;;;;;;7.43;4.57;;;21.20;99.90;;;;;;5073364;28;20464;-79
2021/08/25 09:02:59;;;;;;;6.72;4.60;;;21.20;99.90;;;;;;5055317;28;20895;-79
2021/08/25 09:05:29;;;;;;;6.20;4.37;;;21.30;99.90;;;;;;5074060;28;20385;-79
2021/08/25 09:07:57;;;;;;;6.65;4.60;;;21.20;99.90;;;;;;5073543;28;20409;-81
2021/08/25 09:10:30;;;;;;;5.37;4.13;;;21.20;99.90;;;;;;5054140;28;20810;-80
2021/08/25 09:13:04;;;;;;;10.52;4.78;;;21.20;99.90;;;;;;5070535;28;20370;-81
2021/08/25 09:15:39;;;;;;;8.15;4.38;;;21.30;99.90;;;;;;5070304;28;20402;-80
2021/08/25 09:18:15;;;;;;;7.82;4.40;;;21.40;99.90;;;;;;5070952;28;20461;-81
2021/08/25 09:20:46;;;;;;;7.20;4.60;;;21.40;99.90;;;;;;5070190;28;20802;-79
2021/08/25 09:23:21;;;;;;;6.20;4.28;;;21.40;99.90;;;;;;5070283;28;20370;-81
2021/08/25 09:25:49;;;;;;;7.28;4.60;;;21.40;99.90;;;;;;5052420;28;20390;-78
2021/08/25 09:28:18;;;;;;;6.28;4.20;;;21.10;99.90;;;;;;5070564;28;20362;-81
2021/08/25 09:30:57;;;;;;;8.15;4.45;;;20.80;99.90;;;;;;5070555;28;20374;-80
2021/08/25 09:33:29;;;;;;;6.35;4.00;;;20.50;99.90;;;;;;5070305;28;20374;-80
2021/08/25 09:36:00;;;;;;;7.73;4.33;;;20.40;99.90;;;;;;5069646;28;20409;-80
2021/08/25 09:38:28;;;;;;;4.80;3.92;;;20.50;99.90;;;;;;5069900;28;20392;-80
2021/08/25 09:40:57;;;;;;;7.65;4.20;;;20.50;99.90;;;;;;5052369;28;20367;-80
2021/08/25 09:43:41;;;;;;;6.57;4.50;;;20.60;99.90;;;;;;5069748;28;20374;-79
2021/08/25 09:46:10;;;;;;;7.68;4.32;;;20.80;99.90;;;;;;5072594;28;20385;-78
2021/08/25 09:48:41;;;;;;;7.57;4.50;;;21.10;99.90;;;;;;5073139;28;20374;-81
2021/08/25 09:51:08;;;;;;;7.57;4.23;;;21.40;99.90;;;;;;5073271;28;20447;-80
2021/08/25 09:53:34;;;;;;;5.05;4.30;;;21.60;99.90;;;;;;5071773;28;20729;-79
2021/08/25 09:56:00;;;;;;;7.65;3.92;;;21.30;99.90;;;;;;5073309;28;20428;-79
2021/08/25 09:58:26;;;;;;;6.38;4.28;;;21.10;99.90;;;;;;5073589;28;20378;-79
2021/08/25 10:00:54;;;;;;;8.33;4.20;;;21.00;99.90;;;;;;5074818;28;20828;-81
2021/08/25 10:03:21;;;;;;;7.97;4.53;;;20.90;99.90;;;;;;5056324;28;20871;-78
2021/08/25 10:05:47;;;;;;;6.60;4.00;;;20.90;99.90;;;;;;5073089;28;20382;-81
2021/08/25 10:08:17;;;;;;;8.18;4.43;;;20.80;99.90;;;;;;5075470;28;20451;-79
2021/08/25 10:10:43;;;;;;;6.63;4.03;;;20.90;99.90;;;;;;5070118;28;20375;-78
2021/08/25 10:13:09;;;;;;;8.55;4.50;;;21.00;99.90;;;;;;5069907;28;21278;-79
2021/08/25 10:15:38;;;;;;;7.68;4.25;;;21.00;99.90;;;;;;5069743;28;20391;-81
2021/08/25 10:18:26;;;;;;;6.65;4.40;;;21.20;99.90;;;;;;5069556;28;20417;-80
2021/08/25 10:20:54;;;;;;;8.37;4.40;;;21.40;99.90;;;;;;5069999;28;20467;-80
2021/08/25 10:23:40;;;;;;;6.85;4.28;;;21.50;99.90;;;;;;5070413;28;20460;-79
2021/08/25 10:26:10;;;;;;;6.63;4.30;;;21.60;99.90;;;;;;5069016;28;20475;-80
2021/08/25 10:29:06;;;;;;;8.35;4.57;;;21.60;99.90;;;;;;5070048;28;20386;-79
2021/08/25 10:31:56;;;;;;;5.30;4.07;;;21.80;99.90;;;;;;5070248;28;20481;-79
2021/08/25 10:34:27;;;;;;;7.63;4.57;;;22.10;99.90;;;;;;5069441;28;20378;-80
2021/08/25 10:37:12;;;;;;;6.80;4.20;;;22.00;99.90;;;;;;5069883;28;20402;-79
2021/08/25 10:39:40;;;;;;;7.53;4.40;;;22.00;99.90;;;;;;5069522;28;20372;-82
2021/08/25 10:42:06;;;;;;;8.02;4.40;;;21.90;99.90;;;;;;5069860;28;20381;-80
2021/08/25 10:44:41;;;;;;;5.63;4.20;;;22.00;99.90;;;;;;5069519;28;20863;-82
2021/08/25 10:47:08;;;;;;;8.07;4.70;;;21.90;99.90;;;;;;5066809;28;20945;-78
2021/08/25 10:49:39;;;;;;;6.82;4.40;;;22.00;99.90;;;;;;5069817;28;20396;-80
2021/08/25 10:52:13;;;;;;;7.75;4.30;;;22.10;99.90;;;;;;5069222;28;20378;-83
2021/08/25 10:54:40;;;;;;;8.77;4.20;;;22.30;99.90;;;;;;5050951;28;20472;-81
2021/08/25 10:57:13;;;;;;;5.55;3.85;;;22.20;99.90;;;;;;5069726;28;20420;-80
2021/08/25 10:59:40;;;;;;;5.85;3.95;;;22.20;99.90;;;;;;5070830;28;20374;-79
2021/08/25 11:02:06;;;;;;;7.70;4.35;;;22.10;99.90;;;;;;5069168;28;20374;-80
2021/08/25 11:04:31;;;;;;;6.25;3.95;;;21.90;99.90;;;;;;5069648;28;20381;-79
2021/08/25 11:07:02;;;;;;;6.37;4.13;;;21.70;99.90;;;;;;5074562;28;20385;-79
2021/08/25 11:09:40;;;;;;;5.78;4.20;;;21.70;99.90;;;;;;5073335;28;20378;-81
2021/08/25 11:12:09;;;;;;;6.47;4.10;;;21.90;99.90;;;;;;5054972;28;20486;-81
2021/08/25 11:14:50;;;;;;;5.27;4.00;;;22.00;99.90;;;;;;5073251;28;20378;-81
2021/08/25 11:17:18;;;;;;;7.63;4.25;;;22.10;99.90;;;;;;5055586;28;20405;-82
2021/08/25 11:19:48;;;;;;;5.63;4.03;;;22.50;99.90;;;;;;5054649;28;20763;-80
2021/08/25 11:22:27;;;;;;;6.65;4.03;;;22.90;99.90;;;;;;5073590;28;20370;-81
2021/08/25 11:25:03;;;;;;;6.90;3.60;;;23.20;99.90;;;;;;5074150;28;20373;-80
2021/08/25 11:27:30;;;;;;;5.10;3.80;;;23.40;99.90;;;;;;5073039;28;20420;-82
2021/08/25 11:30:04;;;;;;;5.28;3.85;;;23.50;99.90;;;;;;5073630;28;20374;-82
2021/08/25 11:32:30;;;;;;;5.05;4.10;;;23.50;99.90;;;;;;5074440;28;20382;-79
2021/08/25 11:34:57;;;;;;;5.30;3.90;;;23.70;99.90;;;;;;5054850;28;20409;-81
2021/08/25 11:37:23;;;;;;;6.05;4.05;;;23.80;99.90;;;;;;5072978;28;20378;-81
2021/08/25 11:40:15;;;;;;;8.35;4.20;;;23.90;99.90;;;;;;5072231;28;20386;-79
2021/08/25 11:42:41;;;;;;;6.40;3.95;;;23.70;99.90;;;;;;5070709;28;21164;-82
2021/08/25 11:45:17;;;;;;;8.20;3.95;;;23.70;99.90;;;;;;5072173;28;20734;-79
2021/08/25 11:47:47;;;;;;;7.63;4.25;;;23.50;99.90;;;;;;5073709;28;20461;-81
2021/08/25 11:50:13;;;;;;;5.65;3.88;;;23.30;99.90;;;;;;5073063;28;20434;-78
2021/08/25 11:52:39;;;;;;;6.07;4.28;;;23.40;99.90;;;;;;5054670;28;20443;-82
2021/08/25 11:55:06;;;;;;;6.75;4.25;;;23.50;99.90;;;;;;5074072;28;20891;-79
2021/08/25 11:57:39;;;;;;;6.15;4.20;;;23.60;99.90;;;;;;5073375;28;20432;-79
2021/08/25 12:00:05;;;;;;;6.70;4.45;;;23.50;99.90;;;;;;5072701;28;20389;-80
2021/08/25 12:02:48;;;;;;;7.22;4.18;;;23.40;99.90;;;;;;5074450;28;20469;-81
2021/08/25 12:05:21;;;;;;;6.97;4.07;;;23.40;99.90;;;;;;5073577;28;20379;-81
2021/08/25 12:08:07;;;;;;;6.10;3.93;;;23.30;99.90;;;;;;5055261;28;20382;-81
2021/08/25 12:10:35;;;;;;;9.30;4.30;;;23.00;99.90;;;;;;5073134;28;20374;-80
2021/08/25 12:13:01;;;;;;;6.83;4.17;;;22.90;99.90;;;;;;5074785;28;20429;-83
2021/08/25 12:15:49;;;;;;;7.78;4.22;;;22.70;99.90;;;;;;5056241;28;20430;-81
2021/08/25 12:18:16;;;;;;;7.85;4.38;;;22.50;99.90;;;;;;5053461;28;20445;-80
2021/08/25 12:20:46;;;;;;;6.45;4.28;;;22.70;99.90;;;;;;5073398;28;20393;-81
2021/08/25 12:23:13;;;;;;;7.67;4.03;;;22.70;99.90;;;;;;5073503;28;20358;-80
2021/08/25 12:25:47;;;;;;;6.20;4.20;;;22.90;99.90;;;;;;5074729;28;20362;-80
2021/08/25 12:28:31;;;;;;;9.82;4.28;;;23.40;99.90;;;;;;5072775;28;20375;-79
2021/08/25 12:31:18;;;;;;;7.75;4.10;;;23.90;99.90;;;;;;5073603;28;20469;-81
2021/08/25 12:33:47;;;;;;;7.40;3.90;;;24.30;99.90;;;;;;5072170;28;20970;-81
2021/08/25 12:36:27;;;;;;;6.30;3.70;;;24.20;99.90;;;;;;5072902;28;20475;-83
2021/08/25 12:38:55;;;;;;;7.85;3.88;;;23.90;99.80;;;;;;5054874;28;20385;-79
2021/08/25 12:41:21;;;;;;;8.15;4.20;;;23.60;99.50;;;;;;5072763;28;20868;-81
2021/08/25 12:43:47;;;;;;;14.07;4.17;;;23.30;99.90;;;;;;5072500;28;20382;-79
2021/08/25 12:46:13;;;;;;;7.27;3.63;;;23.00;99.90;;;;;;5074067;28;20410;-80
2021/08/25 12:48:39;;;;;;;9.80;3.80;;;23.20;99.90;;;;;;5056070;28;20409;-79
2021/08/25 12:51:04;;;;;;;6.77;3.60;;;23.50;99.90;;;;;;5073735;28;20409;-79
2021/08/25 12:53:30;;;;;;;6.40;3.80;;;23.80;99.50;;;;;;5055182;28;20793;-79